sensor_id;sensor_type;location;lat;lon;timestamp;P1;durP1;ratioP1;P2;durP2;ratioP2
23258;SDS011;11798;51.528;7.240;2023-01-16T00:00:21;3.87;;;1.67;;
23258;SDS011;11798;51.528;7.240;2023-01-16T00:02:47;8.53;;;1.70;;
23258;SDS011;11798;51.528;7.240;2023-01-16T00:05:13;6.90;;;1.87;;
23258;SDS011;11798;51.528;7.240;2023-01-16T00:07:38;7.10;;;1.10;;
23258;SDS011;11798;51.528;7.240;2023-01-16T00:10:04;5.63;;;1.47;;
23258;SDS011;11798;51.528;7.240;2023-01-16T00:12:30;3.70;;;1.23;;
23258;SDS011;11798;51.528;7.240;2023-01-16T00:14:55;5.97;;;1.50;;
23258;SDS011;11798;51.528;7.240;2023-01-16T00:17:21;2.07;;;1.00;;
23258;SDS011;11798;51.528;7.240;2023-01-16T00:19:47;3.53;;;1.07;;
23258;SDS011;11798;51.528;7.240;2023-01-16T00:22:12;5.50;;;1.70;;
23258;SDS011;11798;51.528;7.240;2023-01-16T00:24:38;5.00;;;1.30;;
23258;SDS011;11798;51.528;7.240;2023-01-16T00:27:04;5.07;;;2.00;;
23258;SDS011;11798;51.528;7.240;2023-01-16T00:29:29;4.00;;;1.10;;
23258;SDS011;11798;51.528;7.240;2023-01-16T00:31:55;3.70;;;1.00;;
23258;SDS011;11798;51.528;7.240;2023-01-16T00:34:20;3.90;;;1.43;;
23258;SDS011;11798;51.528;7.240;2023-01-16T00:36:46;5.93;;;1.70;;
23258;SDS011;11798;51.528;7.240;2023-01-16T00:39:11;4.57;;;1.30;;
23258;SDS011;11798;51.528;7.240;2023-01-16T00:41:37;3.17;;;1.00;;
23258;SDS011;11798;51.528;7.240;2023-01-16T00:44:03;5.63;;;1.40;;
23258;SDS011;11798;51.528;7.240;2023-01-16T00:46:28;4.97;;;1.20;;
23258;SDS011;11798;51.528;7.240;2023-01-16T00:48:54;3.73;;;1.00;;
23258;SDS011;11798;51.528;7.240;2023-01-16T00:51:21;5.03;;;1.07;;
23258;SDS011;11798;51.528;7.240;2023-01-16T00:53:46;6.40;;;1.50;;
23258;SDS011;11798;51.528;7.240;2023-01-16T00:56:12;4.57;;;1.03;;
23258;SDS011;11798;51.528;7.240;2023-01-16T00:58:38;4.17;;;1.10;;
23258;SDS011;11798;51.528;7.240;2023-01-16T01:01:04;2.40;;;0.93;;
23258;SDS011;11798;51.528;7.240;2023-01-16T01:03:30;2.87;;;1.00;;
23258;SDS011;11798;51.528;7.240;2023-01-16T01:05:56;5.00;;;1.20;;
23258;SDS011;11798;51.528;7.240;2023-01-16T01:08:22;3.63;;;1.00;;
23258;SDS011;11798;51.528;7.240;2023-01-16T01:10:48;5.43;;;1.50;;
23258;SDS011;11798;51.528;7.240;2023-01-16T01:13:13;3.17;;;1.17;;
23258;SDS011;11798;51.528;7.240;2023-01-16T01:15:39;4.40;;;1.60;;
23258;SDS011;11798;51.528;7.240;2023-01-16T01:18:05;5.50;;;1.40;;
23258;SDS011;11798;51.528;7.240;2023-01-16T01:20:31;5.83;;;1.43;;
23258;SDS011;11798;51.528;7.240;2023-01-16T01:22:57;2.60;;;0.90;;
23258;SDS011;11798;51.528;7.240;2023-01-16T01:25:23;4.00;;;1.20;;
23258;SDS011;11798;51.528;7.240;2023-01-16T01:27:49;2.90;;;1.10;;
23258;SDS011;11798;51.528;7.240;2023-01-16T01:30:15;5.00;;;1.27;;
23258;SDS011;11798;51.528;7.240;2023-01-16T01:32:41;3.27;;;1.30;;
23258;SDS011;11798;51.528;7.240;2023-01-16T01:35:07;3.97;;;1.00;;
23258;SDS011;11798;51.528;7.240;2023-01-16T01:37:34;3.53;;;1.10;;
23258;SDS011;11798;51.528;7.240;2023-01-16T01:40:00;3.93;;;0.97;;
23258;SDS011;11798;51.528;7.240;2023-01-16T01:42:27;6.97;;;1.10;;
23258;SDS011;11798;51.528;7.240;2023-01-16T01:47:57;5.33;;;1.30;;
23258;SDS011;11798;51.528;7.240;2023-01-16T01:53:26;6.63;;;1.30;;
23258;SDS011;11798;51.528;7.240;2023-01-16T01:55:57;1.83;;;0.70;;
23258;SDS011;11798;51.528;7.240;2023-01-16T01:58:27;3.70;;;1.17;;
23258;SDS011;11798;51.528;7.240;2023-01-16T02:00:55;3.40;;;1.60;;
23258;SDS011;11798;51.528;7.240;2023-01-16T02:03:46;6.70;;;1.80;;
23258;SDS011;11798;51.528;7.240;2023-01-16T02:06:17;4.90;;;1.47;;
23258;SDS011;11798;51.528;7.240;2023-01-16T02:08:45;5.37;;;1.20;;
23258;SDS011;11798;51.528;7.240;2023-01-16T02:11:18;3.03;;;1.30;;
23258;SDS011;11798;51.528;7.240;2023-01-16T02:13:57;3.57;;;1.30;;
23258;SDS011;11798;51.528;7.240;2023-01-16T02:16:26;4.97;;;1.00;;
23258;SDS011;11798;51.528;7.240;2023-01-16T02:19:17;5.70;;;1.67;;
23258;SDS011;11798;51.528;7.240;2023-01-16T02:27:48;3.40;;;0.90;;
23258;SDS011;11798;51.528;7.240;2023-01-16T02:41:46;5.73;;;1.20;;
23258;SDS011;11798;51.528;7.240;2023-01-16T02:47:07;6.23;;;1.07;;
23258;SDS011;11798;51.528;7.240;2023-01-16T02:49:37;2.00;;;1.10;;
23258;SDS011;11798;51.528;7.240;2023-01-16T02:52:30;2.43;;;1.00;;
23258;SDS011;11798;51.528;7.240;2023-01-16T02:55:26;2.93;;;0.87;;
23258;SDS011;11798;51.528;7.240;2023-01-16T02:58:00;2.33;;;1.20;;
23258;SDS011;11798;51.528;7.240;2023-01-16T03:00:29;5.30;;;1.43;;
23258;SDS011;11798;51.528;7.240;2023-01-16T03:02:55;3.67;;;1.17;;
23258;SDS011;11798;51.528;7.240;2023-01-16T03:05:21;4.10;;;1.10;;
23258;SDS011;11798;51.528;7.240;2023-01-16T03:19:01;4.40;;;1.00;;
23258;SDS011;11798;51.528;7.240;2023-01-16T03:27:01;3.20;;;1.17;;
23258;SDS011;11798;51.528;7.240;2023-01-16T03:29:49;2.97;;;0.90;;
23258;SDS011;11798;51.528;7.240;2023-01-16T03:32:30;3.73;;;1.40;;
23258;SDS011;11798;51.528;7.240;2023-01-16T03:37:34;3.30;;;0.90;;
23258;SDS011;11798;51.528;7.240;2023-01-16T03:40:06;5.70;;;1.00;;
23258;SDS011;11798;51.528;7.240;2023-01-16T03:42:55;2.40;;;0.90;;
23258;SDS011;11798;51.528;7.240;2023-01-16T03:45:28;3.50;;;0.90;;
23258;SDS011;11798;51.528;7.240;2023-01-16T03:48:50;2.63;;;0.83;;
23258;SDS011;11798;51.528;7.240;2023-01-16T03:50:55;1.87;;;1.00;;
23258;SDS011;11798;51.528;7.240;2023-01-16T03:53:26;2.07;;;0.73;;
23258;SDS011;11798;51.528;7.240;2023-01-16T03:58:45;1.23;;;0.47;;
23258;SDS011;11798;51.528;7.240;2023-01-16T04:03:43;1.10;;;0.90;;
23258;SDS011;11798;51.528;7.240;2023-01-16T04:09:14;3.37;;;0.70;;
23258;SDS011;11798;51.528;7.240;2023-01-16T04:11:49;4.00;;;1.00;;
23258;SDS011;11798;51.528;7.240;2023-01-16T04:14:16;4.57;;;1.00;;
23258;SDS011;11798;51.528;7.240;2023-01-16T04:16:47;1.40;;;0.60;;
23258;SDS011;11798;51.528;7.240;2023-01-16T04:19:13;1.40;;;0.60;;
23258;SDS011;11798;51.528;7.240;2023-01-16T04:21:44;2.47;;;0.80;;
23258;SDS011;11798;51.528;7.240;2023-01-16T04:24:11;2.17;;;0.70;;
23258;SDS011;11798;51.528;7.240;2023-01-16T04:26:38;1.83;;;0.60;;
23258;SDS011;11798;51.528;7.240;2023-01-16T04:29:04;3.90;;;0.80;;
23258;SDS011;11798;51.528;7.240;2023-01-16T04:31:29;1.33;;;1.00;;
23258;SDS011;11798;51.528;7.240;2023-01-16T04:33:55;2.93;;;0.83;;
23258;SDS011;11798;51.528;7.240;2023-01-16T04:36:21;1.73;;;0.57;;
23258;SDS011;11798;51.528;7.240;2023-01-16T04:38:46;1.50;;;0.63;;
23258;SDS011;11798;51.528;7.240;2023-01-16T04:41:12;4.83;;;0.67;;
23258;SDS011;11798;51.528;7.240;2023-01-16T04:43:58;1.23;;;0.73;;
23258;SDS011;11798;51.528;7.240;2023-01-16T04:46:23;1.73;;;0.70;;
23258;SDS011;11798;51.528;7.240;2023-01-16T04:48:49;3.93;;;0.90;;
23258;SDS011;11798;51.528;7.240;2023-01-16T04:51:14;2.80;;;0.70;;
23258;SDS011;11798;51.528;7.240;2023-01-16T04:53:40;0.93;;;0.50;;
23258;SDS011;11798;51.528;7.240;2023-01-16T04:56:05;0.73;;;0.57;;
23258;SDS011;11798;51.528;7.240;2023-01-16T04:58:31;3.47;;;0.90;;
23258;SDS011;11798;51.528;7.240;2023-01-16T05:00:57;2.80;;;0.80;;
23258;SDS011;11798;51.528;7.240;2023-01-16T05:03:22;4.33;;;1.13;;
23258;SDS011;11798;51.528;7.240;2023-01-16T05:05:48;2.60;;;1.00;;
23258;SDS011;11798;51.528;7.240;2023-01-16T05:08:13;4.03;;;1.00;;
23258;SDS011;11798;51.528;7.240;2023-01-16T05:10:42;2.90;;;1.00;;
23258;SDS011;11798;51.528;7.240;2023-01-16T05:13:07;4.40;;;0.97;;
23258;SDS011;11798;51.528;7.240;2023-01-16T05:15:33;2.80;;;0.90;;
23258;SDS011;11798;51.528;7.240;2023-01-16T05:17:59;3.37;;;0.60;;
23258;SDS011;11798;51.528;7.240;2023-01-16T05:20:24;3.30;;;1.10;;
23258;SDS011;11798;51.528;7.240;2023-01-16T05:22:50;5.73;;;1.43;;
23258;SDS011;11798;51.528;7.240;2023-01-16T05:25:15;4.93;;;1.10;;
23258;SDS011;11798;51.528;7.240;2023-01-16T05:27:41;3.83;;;1.00;;
23258;SDS011;11798;51.528;7.240;2023-01-16T05:30:07;2.30;;;1.07;;
23258;SDS011;11798;51.528;7.240;2023-01-16T05:32:33;5.13;;;1.43;;
23258;SDS011;11798;51.528;7.240;2023-01-16T05:34:59;2.20;;;1.40;;
23258;SDS011;11798;51.528;7.240;2023-01-16T05:37:28;2.97;;;1.37;;
23258;SDS011;11798;51.528;7.240;2023-01-16T05:39:54;2.70;;;0.90;;
23258;SDS011;11798;51.528;7.240;2023-01-16T05:42:22;5.33;;;1.10;;
23258;SDS011;11798;51.528;7.240;2023-01-16T05:44:50;2.60;;;1.00;;
23258;SDS011;11798;51.528;7.240;2023-01-16T05:47:20;3.80;;;0.73;;
23258;SDS011;11798;51.528;7.240;2023-01-16T05:49:46;2.20;;;1.10;;
23258;SDS011;11798;51.528;7.240;2023-01-16T05:52:11;2.20;;;1.03;;
23258;SDS011;11798;51.528;7.240;2023-01-16T05:54:37;4.97;;;1.10;;
23258;SDS011;11798;51.528;7.240;2023-01-16T05:57:03;3.53;;;1.33;;
23258;SDS011;11798;51.528;7.240;2023-01-16T05:59:28;5.80;;;1.50;;
23258;SDS011;11798;51.528;7.240;2023-01-16T06:01:54;2.90;;;1.00;;
23258;SDS011;11798;51.528;7.240;2023-01-16T06:04:21;2.20;;;0.83;;
23258;SDS011;11798;51.528;7.240;2023-01-16T06:06:47;4.57;;;1.10;;
23258;SDS011;11798;51.528;7.240;2023-01-16T06:09:13;3.27;;;1.20;;
23258;SDS011;11798;51.528;7.240;2023-01-16T06:11:38;1.80;;;1.10;;
23258;SDS011;11798;51.528;7.240;2023-01-16T06:14:04;3.90;;;1.07;;
23258;SDS011;11798;51.528;7.240;2023-01-16T06:16:30;2.50;;;0.70;;
23258;SDS011;11798;51.528;7.240;2023-01-16T06:18:56;5.50;;;1.10;;
23258;SDS011;11798;51.528;7.240;2023-01-16T06:21:22;5.73;;;1.43;;
23258;SDS011;11798;51.528;7.240;2023-01-16T06:23:48;3.30;;;1.10;;
23258;SDS011;11798;51.528;7.240;2023-01-16T06:26:13;3.60;;;1.20;;
23258;SDS011;11798;51.528;7.240;2023-01-16T06:28:39;3.30;;;0.87;;
23258;SDS011;11798;51.528;7.240;2023-01-16T06:31:05;2.30;;;0.80;;
23258;SDS011;11798;51.528;7.240;2023-01-16T06:33:31;3.77;;;0.90;;
23258;SDS011;11798;51.528;7.240;2023-01-16T06:35:57;5.90;;;0.93;;
23258;SDS011;11798;51.528;7.240;2023-01-16T06:38:22;2.20;;;0.87;;
23258;SDS011;11798;51.528;7.240;2023-01-16T06:40:48;2.30;;;0.70;;
23258;SDS011;11798;51.528;7.240;2023-01-16T06:43:14;3.40;;;0.87;;
23258;SDS011;11798;51.528;7.240;2023-01-16T06:45:41;2.93;;;0.80;;
23258;SDS011;11798;51.528;7.240;2023-01-16T06:48:10;3.10;;;0.83;;
23258;SDS011;11798;51.528;7.240;2023-01-16T06:50:35;1.70;;;1.00;;
23258;SDS011;11798;51.528;7.240;2023-01-16T06:53:01;2.73;;;0.70;;
23258;SDS011;11798;51.528;7.240;2023-01-16T06:55:26;2.13;;;0.80;;
23258;SDS011;11798;51.528;7.240;2023-01-16T06:57:52;1.50;;;0.80;;
23258;SDS011;11798;51.528;7.240;2023-01-16T07:00:17;3.90;;;1.13;;
23258;SDS011;11798;51.528;7.240;2023-01-16T07:02:43;2.33;;;0.80;;
23258;SDS011;11798;51.528;7.240;2023-01-16T07:05:16;1.77;;;0.90;;
23258;SDS011;11798;51.528;7.240;2023-01-16T07:07:41;3.10;;;0.80;;
23258;SDS011;11798;51.528;7.240;2023-01-16T07:10:07;1.90;;;0.90;;
23258;SDS011;11798;51.528;7.240;2023-01-16T07:12:33;1.47;;;1.03;;
23258;SDS011;11798;51.528;7.240;2023-01-16T07:14:59;2.30;;;1.33;;
23258;SDS011;11798;51.528;7.240;2023-01-16T07:17:43;3.40;;;1.00;;
23258;SDS011;11798;51.528;7.240;2023-01-16T07:20:27;2.40;;;1.17;;
23258;SDS011;11798;51.528;7.240;2023-01-16T07:23:23;5.80;;;1.20;;
23258;SDS011;11798;51.528;7.240;2023-01-16T07:25:52;2.00;;;1.00;;
23258;SDS011;11798;51.528;7.240;2023-01-16T07:28:19;2.73;;;1.03;;
23258;SDS011;11798;51.528;7.240;2023-01-16T07:30:45;2.50;;;1.00;;
23258;SDS011;11798;51.528;7.240;2023-01-16T07:33:12;3.93;;;1.47;;
23258;SDS011;11798;51.528;7.240;2023-01-16T07:35:38;1.87;;;1.27;;
23258;SDS011;11798;51.528;7.240;2023-01-16T07:38:03;2.37;;;1.20;;
23258;SDS011;11798;51.528;7.240;2023-01-16T07:40:29;2.97;;;1.00;;
23258;SDS011;11798;51.528;7.240;2023-01-16T07:42:55;2.60;;;1.07;;
23258;SDS011;11798;51.528;7.240;2023-01-16T07:45:20;4.83;;;1.10;;
23258;SDS011;11798;51.528;7.240;2023-01-16T07:47:46;2.43;;;1.20;;
23258;SDS011;11798;51.528;7.240;2023-01-16T07:50:12;2.90;;;1.30;;
23258;SDS011;11798;51.528;7.240;2023-01-16T07:52:37;3.00;;;1.30;;
23258;SDS011;11798;51.528;7.240;2023-01-16T07:55:03;3.13;;;1.17;;
23258;SDS011;11798;51.528;7.240;2023-01-16T07:57:29;3.20;;;1.47;;
23258;SDS011;11798;51.528;7.240;2023-01-16T07:59:55;1.70;;;1.20;;
23258;SDS011;11798;51.528;7.240;2023-01-16T08:02:20;6.37;;;1.20;;
23258;SDS011;11798;51.528;7.240;2023-01-16T08:04:46;4.87;;;1.30;;
23258;SDS011;11798;51.528;7.240;2023-01-16T08:07:12;2.90;;;1.57;;
23258;SDS011;11798;51.528;7.240;2023-01-16T08:09:38;2.73;;;1.30;;
23258;SDS011;11798;51.528;7.240;2023-01-16T08:12:03;1.93;;;1.00;;
23258;SDS011;11798;51.528;7.240;2023-01-16T08:14:29;3.40;;;1.13;;
23258;SDS011;11798;51.528;7.240;2023-01-16T08:16:54;3.07;;;1.30;;
23258;SDS011;11798;51.528;7.240;2023-01-16T08:19:20;3.27;;;1.30;;
23258;SDS011;11798;51.528;7.240;2023-01-16T08:21:45;4.43;;;1.43;;
23258;SDS011;11798;51.528;7.240;2023-01-16T08:24:11;2.83;;;1.40;;
23258;SDS011;11798;51.528;7.240;2023-01-16T08:26:40;5.07;;;1.27;;
23258;SDS011;11798;51.528;7.240;2023-01-16T08:29:06;5.47;;;1.53;;
23258;SDS011;11798;51.528;7.240;2023-01-16T08:31:32;4.87;;;1.70;;
23258;SDS011;11798;51.528;7.240;2023-01-16T08:33:57;4.00;;;1.00;;
23258;SDS011;11798;51.528;7.240;2023-01-16T08:36:23;6.10;;;1.40;;
23258;SDS011;11798;51.528;7.240;2023-01-16T08:38:50;4.80;;;1.30;;
23258;SDS011;11798;51.528;7.240;2023-01-16T08:41:16;2.47;;;1.10;;
23258;SDS011;11798;51.528;7.240;2023-01-16T08:44:00;3.70;;;1.40;;
23258;SDS011;11798;51.528;7.240;2023-01-16T08:46:46;3.67;;;1.07;;
23258;SDS011;11798;51.528;7.240;2023-01-16T08:49:49;4.10;;;1.23;;
23258;SDS011;11798;51.528;7.240;2023-01-16T08:52:34;6.43;;;1.40;;
23258;SDS011;11798;51.528;7.240;2023-01-16T08:55:01;4.67;;;1.57;;
23258;SDS011;11798;51.528;7.240;2023-01-16T08:57:28;2.90;;;1.20;;
23258;SDS011;11798;51.528;7.240;2023-01-16T08:59:54;3.60;;;1.30;;
23258;SDS011;11798;51.528;7.240;2023-01-16T09:02:20;5.93;;;1.30;;
23258;SDS011;11798;51.528;7.240;2023-01-16T09:04:46;6.57;;;1.10;;
23258;SDS011;11798;51.528;7.240;2023-01-16T09:07:13;3.17;;;1.23;;
23258;SDS011;11798;51.528;7.240;2023-01-16T09:09:39;4.40;;;1.13;;
23258;SDS011;11798;51.528;7.240;2023-01-16T09:12:07;2.53;;;1.10;;
23258;SDS011;11798;51.528;7.240;2023-01-16T09:14:52;6.57;;;1.77;;
23258;SDS011;11798;51.528;7.240;2023-01-16T09:17:20;4.03;;;1.20;;
23258;SDS011;11798;51.528;7.240;2023-01-16T09:19:45;1.87;;;1.07;;
23258;SDS011;11798;51.528;7.240;2023-01-16T09:22:11;4.23;;;1.20;;
23258;SDS011;11798;51.528;7.240;2023-01-16T09:24:37;3.53;;;0.90;;
23258;SDS011;11798;51.528;7.240;2023-01-16T09:27:04;3.80;;;1.10;;
23258;SDS011;11798;51.528;7.240;2023-01-16T09:29:29;3.40;;;1.10;;
23258;SDS011;11798;51.528;7.240;2023-01-16T09:31:55;3.67;;;2.17;;
23258;SDS011;11798;51.528;7.240;2023-01-16T09:34:22;3.17;;;1.13;;
23258;SDS011;11798;51.528;7.240;2023-01-16T09:36:47;4.87;;;1.67;;
23258;SDS011;11798;51.528;7.240;2023-01-16T09:39:13;3.83;;;1.10;;
23258;SDS011;11798;51.528;7.240;2023-01-16T09:41:41;3.13;;;1.10;;
23258;SDS011;11798;51.528;7.240;2023-01-16T09:44:46;2.40;;;0.90;;
23258;SDS011;11798;51.528;7.240;2023-01-16T09:47:15;3.13;;;0.80;;
23258;SDS011;11798;51.528;7.240;2023-01-16T09:49:48;2.97;;;1.17;;
23258;SDS011;11798;51.528;7.240;2023-01-16T09:52:20;3.03;;;0.93;;
23258;SDS011;11798;51.528;7.240;2023-01-16T09:55:21;2.87;;;0.90;;
23258;SDS011;11798;51.528;7.240;2023-01-16T09:58:16;1.83;;;0.70;;
23258;SDS011;11798;51.528;7.240;2023-01-16T10:01:04;2.33;;;0.97;;
23258;SDS011;11798;51.528;7.240;2023-01-16T10:03:37;3.07;;;0.80;;
23258;SDS011;11798;51.528;7.240;2023-01-16T10:06:19;1.77;;;0.80;;
23258;SDS011;11798;51.528;7.240;2023-01-16T10:11:57;4.83;;;1.07;;
23258;SDS011;11798;51.528;7.240;2023-01-16T10:14:30;2.60;;;0.93;;
23258;SDS011;11798;51.528;7.240;2023-01-16T10:20:29;3.63;;;1.20;;
23258;SDS011;11798;51.528;7.240;2023-01-16T10:23:21;1.67;;;0.83;;
23258;SDS011;11798;51.528;7.240;2023-01-16T10:26:07;4.10;;;1.20;;
23258;SDS011;11798;51.528;7.240;2023-01-16T10:31:24;2.97;;;0.97;;
23258;SDS011;11798;51.528;7.240;2023-01-16T10:36:39;2.70;;;0.90;;
23258;SDS011;11798;51.528;7.240;2023-01-16T10:39:13;1.10;;;0.83;;
23258;SDS011;11798;51.528;7.240;2023-01-16T10:41:49;2.03;;;1.40;;
23258;SDS011;11798;51.528;7.240;2023-01-16T10:44:46;3.53;;;1.03;;
23258;SDS011;11798;51.528;7.240;2023-01-16T10:48:02;3.77;;;1.10;;
23258;SDS011;11798;51.528;7.240;2023-01-16T10:50:47;5.70;;;1.10;;
23258;SDS011;11798;51.528;7.240;2023-01-16T10:53:12;2.80;;;0.83;;
23258;SDS011;11798;51.528;7.240;2023-01-16T10:55:41;1.80;;;1.00;;
23258;SDS011;11798;51.528;7.240;2023-01-16T10:58:26;1.13;;;0.73;;
23258;SDS011;11798;51.528;7.240;2023-01-16T11:00:58;1.07;;;0.80;;
23258;SDS011;11798;51.528;7.240;2023-01-16T11:03:41;2.63;;;0.90;;
23258;SDS011;11798;51.528;7.240;2023-01-16T11:06:13;2.30;;;1.07;;
23258;SDS011;11798;51.528;7.240;2023-01-16T11:08:40;2.10;;;1.00;;
23258;SDS011;11798;51.528;7.240;2023-01-16T11:11:08;2.00;;;0.73;;
23258;SDS011;11798;51.528;7.240;2023-01-16T11:13:56;2.07;;;0.80;;
23258;SDS011;11798;51.528;7.240;2023-01-16T11:16:42;3.53;;;0.93;;
23258;SDS011;11798;51.528;7.240;2023-01-16T11:19:27;2.50;;;0.60;;
23258;SDS011;11798;51.528;7.240;2023-01-16T11:21:54;1.97;;;0.70;;
23258;SDS011;11798;51.528;7.240;2023-01-16T11:24:22;1.00;;;0.73;;
23258;SDS011;11798;51.528;7.240;2023-01-16T11:50:56;1.63;;;0.73;;
23258;SDS011;11798;51.528;7.240;2023-01-16T11:53:30;1.73;;;1.30;;
23258;SDS011;11798;51.528;7.240;2023-01-16T12:13:18;1.37;;;0.73;;
23258;SDS011;11798;51.528;7.240;2023-01-16T12:16:18;1.73;;;0.77;;
23258;SDS011;11798;51.528;7.240;2023-01-16T12:21:44;1.00;;;0.80;;
23258;SDS011;11798;51.528;7.240;2023-01-16T12:24:35;2.27;;;0.70;;
23258;SDS011;11798;51.528;7.240;2023-01-16T12:27:10;1.30;;;0.80;;
23258;SDS011;11798;51.528;7.240;2023-01-16T12:37:46;1.10;;;1.00;;
23258;SDS011;11798;51.528;7.240;2023-01-16T12:40:28;0.97;;;0.77;;
23258;SDS011;11798;51.528;7.240;2023-01-16T12:58:50;1.57;;;0.77;;
23258;SDS011;11798;51.528;7.240;2023-01-16T13:01:21;1.53;;;0.80;;
23258;SDS011;11798;51.528;7.240;2023-01-16T13:06:36;0.97;;;0.80;;
23258;SDS011;11798;51.528;7.240;2023-01-16T13:09:04;1.37;;;0.70;;
23258;SDS011;11798;51.528;7.240;2023-01-16T13:12:29;1.10;;;0.63;;
23258;SDS011;11798;51.528;7.240;2023-01-16T13:15:00;1.40;;;0.73;;
23258;SDS011;11798;51.528;7.240;2023-01-16T13:17:43;1.30;;;0.90;;
23258;SDS011;11798;51.528;7.240;2023-01-16T13:20:30;1.20;;;1.00;;
23258;SDS011;11798;51.528;7.240;2023-01-16T13:22:58;1.10;;;0.90;;
23258;SDS011;11798;51.528;7.240;2023-01-16T13:25:30;1.27;;;0.80;;
23258;SDS011;11798;51.528;7.240;2023-01-16T13:28:13;1.10;;;0.90;;
23258;SDS011;11798;51.528;7.240;2023-01-16T13:30:51;0.80;;;0.70;;
23258;SDS011;11798;51.528;7.240;2023-01-16T13:33:20;1.10;;;0.90;;
23258;SDS011;11798;51.528;7.240;2023-01-16T13:38:50;2.07;;;1.00;;
23258;SDS011;11798;51.528;7.240;2023-01-16T13:41:24;1.03;;;0.80;;
23258;SDS011;11798;51.528;7.240;2023-01-16T13:47:11;1.20;;;0.63;;
23258;SDS011;11798;51.528;7.240;2023-01-16T13:49:40;1.10;;;0.87;;
23258;SDS011;11798;51.528;7.240;2023-01-16T13:52:14;1.73;;;1.00;;
23258;SDS011;11798;51.528;7.240;2023-01-16T13:54:47;1.57;;;1.10;;
23258;SDS011;11798;51.528;7.240;2023-01-16T13:57:15;1.77;;;0.80;;
23258;SDS011;11798;51.528;7.240;2023-01-16T13:59:47;2.73;;;1.23;;
23258;SDS011;11798;51.528;7.240;2023-01-16T14:10:41;1.83;;;0.60;;
23258;SDS011;11798;51.528;7.240;2023-01-16T14:13:14;1.77;;;0.80;;
23258;SDS011;11798;51.528;7.240;2023-01-16T14:15:48;1.60;;;0.90;;
23258;SDS011;11798;51.528;7.240;2023-01-16T14:21:09;1.33;;;0.70;;
23258;SDS011;11798;51.528;7.240;2023-01-16T14:23:43;0.87;;;0.70;;
23258;SDS011;11798;51.528;7.240;2023-01-16T14:29:23;1.67;;;0.87;;
23258;SDS011;11798;51.528;7.240;2023-01-16T14:32:03;0.70;;;0.60;;
23258;SDS011;11798;51.528;7.240;2023-01-16T14:34:41;1.57;;;0.90;;
23258;SDS011;11798;51.528;7.240;2023-01-16T14:37:14;2.37;;;1.00;;
23258;SDS011;11798;51.528;7.240;2023-01-16T14:39:47;0.93;;;0.80;;
23258;SDS011;11798;51.528;7.240;2023-01-16T14:42:19;1.23;;;1.13;;
23258;SDS011;11798;51.528;7.240;2023-01-16T14:48:10;2.70;;;1.00;;
23258;SDS011;11798;51.528;7.240;2023-01-16T14:53:55;2.63;;;0.97;;
23258;SDS011;11798;51.528;7.240;2023-01-16T14:57:09;0.77;;;0.70;;
23258;SDS011;11798;51.528;7.240;2023-01-16T15:02:34;1.10;;;0.60;;
23258;SDS011;11798;51.528;7.240;2023-01-16T15:07:40;1.47;;;0.80;;
23258;SDS011;11798;51.528;7.240;2023-01-16T15:10:16;1.53;;;0.70;;
23258;SDS011;11798;51.528;7.240;2023-01-16T15:13:14;1.07;;;0.83;;
23258;SDS011;11798;51.528;7.240;2023-01-16T15:15:41;2.00;;;0.90;;
23258;SDS011;11798;51.528;7.240;2023-01-16T15:18:11;0.60;;;0.60;;
23258;SDS011;11798;51.528;7.240;2023-01-16T15:20:57;1.27;;;1.00;;
23258;SDS011;11798;51.528;7.240;2023-01-16T15:23:43;2.27;;;0.90;;
23258;SDS011;11798;51.528;7.240;2023-01-16T15:26:20;1.80;;;0.87;;
23258;SDS011;11798;51.528;7.240;2023-01-16T15:31:31;1.53;;;0.70;;
23258;SDS011;11798;51.528;7.240;2023-01-16T15:41:44;1.70;;;0.90;;
23258;SDS011;11798;51.528;7.240;2023-01-16T15:44:31;1.13;;;0.93;;
23258;SDS011;11798;51.528;7.240;2023-01-16T15:52:36;1.23;;;1.10;;
23258;SDS011;11798;51.528;7.240;2023-01-16T15:55:26;1.37;;;1.00;;
23258;SDS011;11798;51.528;7.240;2023-01-16T15:57:53;1.30;;;1.20;;
23258;SDS011;11798;51.528;7.240;2023-01-16T16:00:25;1.73;;;1.20;;
23258;SDS011;11798;51.528;7.240;2023-01-16T16:03:10;2.33;;;1.33;;
23258;SDS011;11798;51.528;7.240;2023-01-16T16:05:51;3.40;;;1.20;;
23258;SDS011;11798;51.528;7.240;2023-01-16T16:08:21;1.50;;;1.40;;
23258;SDS011;11798;51.528;7.240;2023-01-16T16:10:57;2.13;;;1.67;;
23258;SDS011;11798;51.528;7.240;2023-01-16T16:13:43;3.27;;;1.50;;
23258;SDS011;11798;51.528;7.240;2023-01-16T16:19:01;2.80;;;1.83;;
23258;SDS011;11798;51.528;7.240;2023-01-16T16:24:33;2.27;;;1.67;;
23258;SDS011;11798;51.528;7.240;2023-01-16T16:27:09;1.63;;;1.53;;
23258;SDS011;11798;51.528;7.240;2023-01-16T16:29:38;2.13;;;1.60;;
23258;SDS011;11798;51.528;7.240;2023-01-16T16:32:05;3.30;;;2.00;;
23258;SDS011;11798;51.528;7.240;2023-01-16T16:34:36;2.07;;;1.60;;
23258;SDS011;11798;51.528;7.240;2023-01-16T16:37:03;1.73;;;1.50;;
23258;SDS011;11798;51.528;7.240;2023-01-16T16:47:39;1.53;;;1.40;;
23258;SDS011;11798;51.528;7.240;2023-01-16T16:50:40;2.27;;;1.60;;
23258;SDS011;11798;51.528;7.240;2023-01-16T16:53:15;3.43;;;1.70;;
23258;SDS011;11798;51.528;7.240;2023-01-16T16:55:48;2.97;;;1.50;;
23258;SDS011;11798;51.528;7.240;2023-01-16T16:58:38;2.10;;;1.67;;
23258;SDS011;11798;51.528;7.240;2023-01-16T17:01:09;2.07;;;1.50;;
23258;SDS011;11798;51.528;7.240;2023-01-16T17:03:39;2.00;;;1.77;;
23258;SDS011;11798;51.528;7.240;2023-01-16T17:06:12;1.60;;;1.40;;
23258;SDS011;11798;51.528;7.240;2023-01-16T17:08:41;2.17;;;1.70;;
23258;SDS011;11798;51.528;7.240;2023-01-16T17:11:09;2.60;;;1.70;;
23258;SDS011;11798;51.528;7.240;2023-01-16T17:13:36;2.30;;;1.67;;
23258;SDS011;11798;51.528;7.240;2023-01-16T17:16:02;2.67;;;1.93;;
23258;SDS011;11798;51.528;7.240;2023-01-16T17:18:28;3.13;;;1.77;;
23258;SDS011;11798;51.528;7.240;2023-01-16T17:20:54;1.80;;;1.60;;
23258;SDS011;11798;51.528;7.240;2023-01-16T17:23:20;1.63;;;1.50;;
23258;SDS011;11798;51.528;7.240;2023-01-16T17:25:47;1.60;;;1.50;;
23258;SDS011;11798;51.528;7.240;2023-01-16T17:28:13;1.53;;;1.40;;
23258;SDS011;11798;51.528;7.240;2023-01-16T17:30:39;2.00;;;1.60;;
23258;SDS011;11798;51.528;7.240;2023-01-16T17:35:42;2.97;;;1.70;;
23258;SDS011;11798;51.528;7.240;2023-01-16T17:38:12;1.87;;;1.63;;
23258;SDS011;11798;51.528;7.240;2023-01-16T17:40:42;1.57;;;1.47;;
23258;SDS011;11798;51.528;7.240;2023-01-16T17:43:17;2.43;;;1.57;;
23258;SDS011;11798;51.528;7.240;2023-01-16T17:46:14;1.70;;;1.60;;
23258;SDS011;11798;51.528;7.240;2023-01-16T17:48:40;3.60;;;1.73;;
23258;SDS011;11798;51.528;7.240;2023-01-16T17:51:06;4.13;;;1.87;;
23258;SDS011;11798;51.528;7.240;2023-01-16T17:53:32;1.70;;;1.60;;
23258;SDS011;11798;51.528;7.240;2023-01-16T17:55:59;3.23;;;1.77;;
23258;SDS011;11798;51.528;7.240;2023-01-16T18:01:01;3.73;;;1.77;;
23258;SDS011;11798;51.528;7.240;2023-01-16T18:03:28;2.17;;;1.73;;
23258;SDS011;11798;51.528;7.240;2023-01-16T18:06:02;2.60;;;1.70;;
23258;SDS011;11798;51.528;7.240;2023-01-16T18:08:30;1.60;;;1.40;;
23258;SDS011;11798;51.528;7.240;2023-01-16T18:10:58;1.60;;;1.50;;
23258;SDS011;11798;51.528;7.240;2023-01-16T18:13:47;2.47;;;1.50;;
23258;SDS011;11798;51.528;7.240;2023-01-16T18:16:32;1.57;;;1.47;;
23258;SDS011;11798;51.528;7.240;2023-01-16T18:19:17;2.63;;;1.43;;
23258;SDS011;11798;51.528;7.240;2023-01-16T18:21:42;1.87;;;1.40;;
23258;SDS011;11798;51.528;7.240;2023-01-16T18:24:29;1.73;;;1.50;;
23258;SDS011;11798;51.528;7.240;2023-01-16T18:27:00;2.57;;;1.90;;
23258;SDS011;11798;51.528;7.240;2023-01-16T18:29:27;2.63;;;1.80;;
23258;SDS011;11798;51.528;7.240;2023-01-16T18:31:52;3.13;;;1.60;;
23258;SDS011;11798;51.528;7.240;2023-01-16T18:34:37;2.47;;;1.80;;
23258;SDS011;11798;51.528;7.240;2023-01-16T18:37:02;4.00;;;1.90;;